Fort Smith Airport
CYSM : rendu visible

Aérodrome :











RETROUVEZ-NOUS SUR...

 
LOGIN :

S'inscrire | Disclaimer

   EN    FR    IT 

 









Légende :    VFR   VFR Marginal   IFR   IFR Intensif   IFR Très Intensif
Visi : 
Plafond : 
>= 8 km
>= 3000ft
5 à 8 km
1000 à 3000 ft
1500m à 5 km
500 à 1000 ft
800 à 1500m
200 à 500 ft
< 800m
< 200 ft
Symboles :   Orages  Brouillard  Fortes neiges  Fortes précipitations  Vent > 20 kt






- Altitude de l'aérodrome : 671 ft
- Code IATA : YSM


CYSM - Fort Smith

DERNIER METAR :
  • 251800Z 07003KT 040V120 15SM FEW025 OVC048 05/01 A2982 RMK CF1SC8 CF TR SLP108

METARs EXPIRÉS :
  • 251746Z 08007KT 050V120 15SM OVC048 05/01 A2982 RMK SC8 SLP109
  • 251700Z 05006KT 030V110 15SM -RA OVC044 05/01 A2982 RMK SC8 CIG RAG SLP111
  • 251600Z 07005KT 040V110 15SM -RA OVC057 05/01 A2983 RMK SC8 SLP113

TAF TAF CYSM
Valide du 25 à 18h jusqu'au 26 à 06h UTC


251738Z 2518/2606 09010KT P6SM OVC050
TEMPO 2518/2606 P6SM -RA BKN020 OVC050 RMK NXT FCST BY 260000Z
FIR CZEG / Amérique du Nord



MET'MAP, la Météo Aéronautique d'un coup d'oeil ! - Copyright ORBIFLY Décembre 2007 - Disclaimer

ORBIFLY MET'MAP TEAM :

Programmation & Développement : Alexandra Zaïnal
Sur une idée originale de : Baudouin d'Aumeries
Assistance à la programmation : Marc-Olivier Méhu
Soutien technique & logistique : Manuel Goepfert

Contact : metmap@orbifly.com




SOURCES & CREDITS :

   NOAA       Earth
Advisory